createdAt,value
2022-09-06T00:00:26.556Z,7.90
2022-09-06T00:02:57.641Z,7.90
2022-09-06T00:05:24.889Z,7.80
2022-09-06T00:07:52.525Z,7.80
2022-09-06T00:10:20.158Z,7.80
2022-09-06T00:12:47.826Z,7.70
2022-09-06T00:15:15.572Z,7.70
2022-09-06T00:17:44.878Z,7.60
2022-09-06T00:20:12.206Z,7.60
2022-09-06T00:22:39.648Z,7.50
2022-09-06T00:25:07.446Z,7.50
2022-09-06T00:27:35.220Z,7.40
2022-09-06T00:30:04.751Z,7.40
2022-09-06T00:32:33.148Z,7.30
2022-09-06T00:35:00.328Z,7.30
2022-09-06T00:37:27.718Z,7.20
2022-09-06T00:39:54.924Z,7.20
2022-09-06T00:42:22.139Z,7.10
2022-09-06T00:44:50.660Z,7.10
2022-09-06T00:47:18.264Z,7.00
2022-09-06T00:49:49.214Z,7.00
2022-09-06T00:52:19.057Z,7.00
2022-09-06T00:54:47.926Z,6.90
2022-09-06T00:57:16.804Z,6.90
2022-09-06T00:59:45.836Z,6.80
2022-09-06T01:02:13.385Z,6.80
2022-09-06T01:04:43.164Z,6.80
2022-09-06T01:07:25.800Z,6.70
2022-09-06T01:10:20.174Z,6.70
2022-09-06T01:13:13.762Z,6.70
2022-09-06T01:16:06.850Z,6.60
2022-09-06T01:18:50.314Z,6.60
2022-09-06T01:21:35.101Z,6.60
2022-09-06T01:24:21.220Z,6.50
2022-09-06T01:27:06.695Z,6.50
2022-09-06T01:29:48.673Z,6.50
2022-09-06T01:32:33.058Z,6.40
2022-09-06T01:35:18.983Z,6.50
2022-09-06T01:37:46.380Z,6.40
2022-09-06T01:40:13.743Z,6.40
2022-09-06T01:42:43.436Z,6.40
2022-09-06T01:45:20.765Z,6.40
2022-09-06T01:47:53.895Z,6.30
2022-09-06T01:50:44.518Z,6.30
2022-09-06T01:53:36.540Z,6.30
2022-09-06T01:56:29.099Z,6.20
2022-09-06T01:59:48.269Z,6.20
2022-09-06T02:02:49.392Z,6.10
2022-09-06T02:05:42.981Z,6.10
2022-09-06T02:08:16.843Z,6.00
2022-09-06T02:10:55.557Z,6.00
2022-09-06T02:13:25.941Z,5.90
2022-09-06T02:15:58.674Z,5.90
2022-09-06T02:18:34.244Z,5.90
2022-09-06T02:21:03.669Z,5.80
2022-09-06T02:23:36.753Z,5.80
2022-09-06T02:26:18.551Z,5.80
2022-09-06T02:28:46.092Z,5.80
2022-09-06T02:31:25.792Z,5.80
2022-09-06T02:33:53.817Z,5.80
2022-09-06T02:36:21.707Z,5.80
2022-09-06T02:38:49.149Z,5.70
2022-09-06T02:41:21.156Z,5.70
2022-09-06T02:43:49.288Z,5.70
2022-09-06T02:46:16.702Z,5.70
2022-09-06T02:48:44.026Z,5.70
2022-09-06T02:51:11.411Z,5.70
2022-09-06T02:53:38.589Z,5.70
2022-09-06T02:56:06.237Z,5.60
2022-09-06T02:58:34.698Z,5.60
2022-09-06T03:01:02.142Z,5.60
2022-09-06T03:03:29.446Z,5.60
2022-09-06T03:05:57.005Z,5.60
2022-09-06T03:08:26.399Z,5.50
2022-09-06T03:10:56.216Z,5.50
2022-09-06T03:13:24.580Z,5.50
2022-09-06T03:15:53.117Z,5.50
2022-09-06T03:18:20.918Z,5.40
2022-09-06T03:20:52.490Z,5.40
2022-09-06T03:23:20.901Z,5.40
2022-09-06T03:25:48.238Z,5.30
2022-09-06T03:28:16.435Z,5.30
2022-09-06T03:30:47.669Z,5.30
2022-09-06T03:33:15.665Z,5.20
2022-09-06T03:35:54.890Z,5.20
2022-09-06T03:38:23.511Z,5.20
2022-09-06T03:40:52.957Z,5.20
2022-09-06T03:43:21.381Z,5.20
2022-09-06T03:45:50.846Z,5.20
2022-09-06T03:48:19.603Z,5.10
2022-09-06T03:50:48.342Z,5.10
2022-09-06T03:53:17.037Z,5.10
2022-09-06T03:55:46.248Z,5.10
2022-09-06T03:58:13.825Z,5.10
2022-09-06T04:00:41.331Z,5.10
2022-09-06T04:03:09.062Z,5.10
2022-09-06T04:05:36.812Z,5.10
2022-09-06T04:08:05.940Z,5.10
2022-09-06T04:10:33.985Z,5.10
2022-09-06T04:13:01.170Z,5.10
2022-09-06T04:15:28.399Z,5.10
2022-09-06T04:17:55.813Z,5.10
2022-09-06T04:20:23.071Z,5.10
2022-09-06T04:22:50.276Z,5.10
2022-09-06T04:25:17.724Z,5.10
2022-09-06T04:27:44.875Z,5.20
2022-09-06T04:30:12.261Z,5.20
2022-09-06T04:32:40.721Z,5.20
2022-09-06T04:35:08.551Z,5.20
2022-09-06T04:37:35.760Z,5.20
2022-09-06T04:40:04.055Z,5.30
2022-09-06T04:42:31.667Z,5.30
2022-09-06T04:44:58.904Z,5.30
2022-09-06T04:47:26.758Z,5.30
2022-09-06T04:49:54.067Z,5.40
2022-09-06T04:52:21.272Z,5.40
2022-09-06T04:54:48.649Z,5.40
2022-09-06T04:57:15.831Z,5.40
2022-09-06T04:59:43.119Z,5.50
2022-09-06T05:02:10.906Z,5.60
2022-09-06T05:04:38.170Z,5.60
2022-09-06T05:07:09.079Z,5.60
2022-09-06T05:09:36.967Z,5.70
2022-09-06T05:12:06.175Z,5.80
2022-09-06T05:14:33.390Z,5.90
2022-09-06T05:17:00.811Z,6.00
2022-09-06T05:19:28.049Z,6.00
2022-09-06T05:21:55.467Z,6.10
2022-09-06T05:24:22.825Z,6.20
2022-09-06T05:26:50.029Z,6.30
2022-09-06T05:29:17.254Z,6.40
2022-09-06T05:31:44.944Z,6.50
2022-09-06T05:34:13.567Z,6.60
2022-09-06T05:36:42.056Z,6.70
2022-09-06T05:39:09.772Z,6.80
2022-09-06T05:41:37.152Z,6.90
2022-09-06T05:44:04.534Z,7.00
2022-09-06T05:46:31.946Z,7.20
2022-09-06T05:49:08.059Z,7.30
2022-09-06T05:51:35.486Z,7.40
2022-09-06T05:54:02.853Z,7.60
2022-09-06T05:56:30.044Z,7.70
2022-09-06T05:58:57.459Z,7.80
2022-09-06T06:01:31.592Z,7.90
2022-09-06T06:04:04.946Z,8.10
2022-09-06T06:06:34.260Z,8.30
2022-09-06T06:09:02.035Z,8.40
2022-09-06T06:11:31.036Z,8.60
2022-09-06T06:13:59.311Z,8.80
2022-09-06T06:16:26.914Z,8.90
2022-09-06T06:18:54.500Z,9.10
2022-09-06T06:21:24.226Z,9.20
2022-09-06T06:23:54.434Z,9.40
2022-09-06T06:26:22.889Z,9.50
2022-09-06T06:28:50.297Z,9.60
2022-09-06T06:31:17.742Z,9.80
2022-09-06T06:33:45.236Z,9.90
2022-09-06T06:36:13.252Z,10.00
2022-09-06T06:38:42.789Z,10.20
2022-09-06T06:41:14.907Z,10.30
2022-09-06T06:43:42.435Z,10.40
2022-09-06T06:46:18.133Z,10.50
2022-09-06T06:48:47.397Z,10.60
2022-09-06T06:51:18.252Z,10.70
2022-09-06T06:53:49.125Z,10.90
2022-09-06T06:56:28.532Z,11.00
2022-09-06T06:58:58.436Z,11.20
2022-09-06T07:01:27.654Z,11.30
2022-09-06T07:03:55.165Z,11.40
2022-09-06T07:09:11.431Z,11.70
2022-09-06T07:11:38.599Z,11.80
2022-09-06T07:14:05.888Z,12.00
2022-09-06T07:16:33.768Z,12.10
2022-09-06T07:19:01.329Z,12.20
2022-09-06T07:24:08.691Z,12.40
2022-09-06T07:26:39.027Z,12.50
2022-09-06T07:29:08.273Z,12.60
2022-09-06T07:34:27.804Z,12.80
2022-09-06T07:36:56.283Z,12.90
2022-09-06T07:39:23.777Z,13.00
2022-09-06T07:41:51.629Z,13.20
2022-09-06T07:44:18.800Z,13.30
2022-09-06T07:46:46.331Z,13.40
2022-09-06T07:49:13.854Z,13.50
2022-09-06T07:51:41.075Z,13.60
2022-09-06T07:56:56.199Z,13.80
2022-09-06T07:59:23.349Z,13.80
2022-09-06T08:01:51.386Z,13.90
2022-09-06T08:04:18.936Z,14.00
2022-09-06T08:09:36.838Z,14.20
2022-09-06T08:12:07.579Z,14.30
2022-09-06T08:14:35.512Z,14.30
2022-09-06T08:17:03.644Z,14.40
2022-09-06T08:19:31.302Z,14.50
2022-09-06T08:21:58.662Z,14.60
2022-09-06T08:24:26.059Z,14.70
2022-09-06T08:26:53.320Z,14.80
2022-09-06T08:29:20.716Z,14.90
2022-09-06T08:31:48.149Z,14.90
2022-09-06T08:34:16.094Z,15.00
2022-09-06T08:36:44.250Z,15.00
2022-09-06T08:39:14.934Z,15.10
2022-09-06T08:41:42.052Z,15.20
2022-09-06T08:47:10.325Z,15.40
2022-09-06T08:49:40.326Z,15.50
2022-09-06T08:52:22.521Z,15.50
2022-09-06T08:55:01.952Z,15.70
2022-09-06T08:57:48.914Z,15.70
2022-09-06T09:00:16.887Z,15.70
2022-09-06T09:02:52.428Z,15.80
2022-09-06T09:05:25.664Z,15.90
2022-09-06T09:08:16.229Z,15.90
2022-09-06T09:10:48.236Z,16.00
2022-09-06T09:13:35.440Z,16.00
2022-09-06T09:16:06.674Z,16.10
2022-09-06T09:18:40.210Z,16.10
2022-09-06T09:21:07.472Z,16.20
2022-09-06T09:23:35.119Z,16.20
2022-09-06T09:26:10.461Z,16.30
2022-09-06T09:28:37.858Z,16.40
2022-09-06T09:31:07.189Z,16.50
2022-09-06T09:33:39.013Z,16.50
2022-09-06T09:36:13.327Z,16.60
2022-09-06T09:38:42.595Z,16.70
2022-09-06T09:41:24.146Z,16.70
2022-09-06T09:44:10.045Z,16.80
2022-09-06T09:46:39.938Z,16.90
2022-09-06T09:49:25.098Z,16.90
2022-09-06T09:52:16.114Z,17.00
2022-09-06T09:54:46.322Z,17.10
2022-09-06T09:57:17.883Z,17.10
2022-09-06T09:59:58.326Z,17.20
2022-09-06T10:02:29.987Z,17.30
2022-09-06T10:05:04.922Z,17.40
2022-09-06T10:07:34.445Z,17.50
2022-09-06T10:10:05.657Z,17.60
2022-09-06T10:12:36.676Z,17.70
2022-09-06T10:15:07.226Z,17.70
2022-09-06T10:17:48.386Z,17.70
2022-09-06T10:20:16.548Z,17.90
2022-09-06T10:23:06.586Z,18.00
2022-09-06T10:26:12.223Z,18.20
2022-09-06T10:28:47.238Z,18.30
2022-09-06T10:31:45.667Z,18.40
2022-09-06T10:34:31.443Z,18.50
2022-09-06T10:37:36.624Z,18.70
2022-09-06T10:40:10.212Z,19.00
2022-09-06T10:42:59.222Z,19.60
2022-09-06T10:45:46.646Z,20.30
2022-09-06T10:48:52.145Z,21.20
2022-09-06T10:51:39.877Z,21.90
2022-09-06T10:54:11.335Z,22.40
2022-09-06T10:56:51.445Z,22.40
2022-09-06T11:02:41.371Z,22.10
2022-09-06T11:05:38.404Z,21.80
2022-09-06T11:11:06.251Z,20.90
2022-09-06T11:13:33.878Z,20.60
2022-09-06T11:16:23.007Z,20.40
2022-09-06T11:19:09.975Z,20.20
2022-09-06T11:21:40.285Z,20.00
2022-09-06T11:24:33.493Z,20.00
2022-09-06T11:27:31.066Z,19.90
2022-09-06T11:30:00.789Z,19.80
2022-09-06T11:32:36.292Z,19.80
2022-09-06T11:35:07.482Z,19.90
2022-09-06T11:37:39.634Z,19.80
2022-09-06T11:40:26.897Z,19.80
2022-09-06T11:42:55.623Z,19.70
2022-09-06T11:45:40.379Z,19.70
2022-09-06T11:48:34.285Z,19.60
2022-09-06T11:51:11.263Z,19.50
2022-09-06T11:54:05.188Z,19.40
2022-09-06T11:56:36.930Z,19.20
2022-09-06T11:59:21.598Z,19.10
2022-09-06T12:02:07.684Z,19.00
2022-09-06T12:05:04.701Z,18.90
2022-09-06T12:07:32.940Z,18.70
2022-09-06T12:10:31.344Z,18.70
2022-09-06T12:12:59.366Z,18.60
2022-09-06T12:15:52.472Z,18.50
2022-09-06T12:18:47.555Z,18.40
2022-09-06T12:21:39.101Z,18.40
2022-09-06T12:24:08.830Z,18.30
2022-09-06T12:26:55.613Z,18.30
2022-09-06T12:29:26.956Z,18.30
2022-09-06T12:31:57.326Z,18.30
2022-09-06T12:34:30.705Z,18.40
2022-09-06T12:37:07.319Z,18.60
2022-09-06T12:39:35.162Z,18.70
2022-09-06T12:42:04.065Z,18.90
2022-09-06T12:44:37.874Z,19.10
2022-09-06T12:47:15.685Z,19.30
2022-09-06T12:49:42.965Z,19.50
2022-09-06T12:52:16.518Z,19.60
2022-09-06T12:54:49.665Z,19.80
2022-09-06T12:57:21.783Z,20.00
2022-09-06T12:59:54.626Z,20.20
2022-09-06T13:02:46.710Z,20.60
2022-09-06T13:05:14.752Z,21.40
2022-09-06T13:07:52.428Z,22.20
2022-09-06T13:10:22.847Z,22.90
2022-09-06T13:12:53.210Z,23.40
2022-09-06T13:15:25.328Z,23.70
2022-09-06T13:17:54.603Z,24.10
2022-09-06T13:20:24.045Z,24.40
2022-09-06T13:22:52.393Z,24.70
2022-09-06T13:25:20.839Z,25.20
2022-09-06T13:27:51.014Z,25.50
2022-09-06T13:30:42.786Z,26.00
2022-09-06T13:33:25.643Z,26.50
2022-09-06T13:36:08.359Z,27.00
2022-09-06T13:38:38.716Z,27.30
2022-09-06T13:41:27.562Z,27.80
2022-09-06T13:44:08.037Z,28.30
2022-09-06T13:46:38.549Z,28.80
2022-09-06T13:49:06.244Z,29.00
2022-09-06T13:51:34.437Z,29.30
2022-09-06T13:54:13.001Z,29.40
2022-09-06T13:56:42.653Z,29.40
2022-09-06T13:59:10.894Z,29.50
2022-09-06T14:01:40.391Z,29.40
2022-09-06T14:04:10.595Z,29.20
2022-09-06T14:06:37.831Z,29.00
2022-09-06T14:09:07.745Z,28.70
2022-09-06T14:11:36.762Z,28.50
2022-09-06T14:14:04.337Z,28.50
2022-09-06T14:16:32.239Z,28.50
2022-09-06T14:18:59.608Z,28.60
2022-09-06T14:21:26.867Z,28.50
2022-09-06T14:23:54.216Z,28.40
2022-09-06T14:26:23.197Z,28.40
2022-09-06T14:28:51.504Z,28.40
2022-09-06T14:31:26.106Z,28.30
2022-09-06T14:33:55.412Z,28.00
2022-09-06T14:36:26.410Z,27.50
2022-09-06T14:38:54.079Z,27.00
2022-09-06T14:41:21.877Z,26.40
2022-09-06T14:43:54.774Z,25.70
2022-09-06T14:46:23.689Z,25.10
2022-09-06T14:49:00.865Z,24.50
2022-09-06T14:51:29.037Z,24.10
2022-09-06T14:54:03.355Z,23.60
2022-09-06T14:56:30.926Z,23.20
2022-09-06T14:59:00.082Z,23.00
2022-09-06T15:01:38.043Z,22.70
2022-09-06T15:04:08.906Z,22.50
2022-09-06T15:06:39.217Z,22.40
2022-09-06T15:09:08.110Z,22.40
2022-09-06T15:11:43.540Z,22.30
2022-09-06T15:14:25.269Z,22.30
2022-09-06T15:16:56.495Z,22.50
2022-09-06T15:19:25.831Z,22.60
2022-09-06T15:21:54.265Z,22.80
2022-09-06T15:24:22.011Z,23.00
2022-09-06T15:26:50.042Z,23.20
2022-09-06T15:29:17.595Z,23.30
2022-09-06T15:31:50.257Z,23.40
2022-09-06T15:34:22.270Z,23.50
2022-09-06T15:36:50.607Z,23.50
2022-09-06T15:39:18.166Z,23.50
2022-09-06T15:41:46.330Z,23.50
2022-09-06T15:44:16.114Z,23.50
2022-09-06T15:46:50.060Z,23.40
2022-09-06T15:49:28.400Z,23.40
2022-09-06T15:51:57.581Z,23.30
2022-09-06T15:54:43.570Z,23.30
2022-09-06T15:57:11.831Z,23.30
2022-09-06T15:59:40.793Z,23.00
2022-09-06T16:02:09.018Z,22.90
2022-09-06T16:04:36.261Z,22.80
2022-09-06T16:07:04.216Z,22.60
2022-09-06T16:09:31.865Z,22.40
2022-09-06T16:11:59.140Z,22.10
2022-09-06T16:14:28.206Z,21.90
2022-09-06T16:16:56.447Z,21.70
2022-09-06T16:19:26.033Z,21.40
2022-09-06T16:21:53.986Z,21.20
2022-09-06T16:24:21.498Z,21.00
2022-09-06T16:26:48.863Z,20.80
2022-09-06T16:29:18.195Z,20.70
2022-09-06T16:31:45.903Z,20.50
2022-09-06T16:34:14.107Z,20.40
2022-09-06T16:36:41.664Z,20.20
2022-09-06T16:39:09.585Z,20.10
2022-09-06T16:41:42.908Z,19.90
2022-09-06T16:44:16.744Z,19.70
2022-09-06T16:46:49.366Z,19.50
2022-09-06T16:49:19.321Z,19.20
2022-09-06T16:51:49.014Z,19.10
2022-09-06T16:54:17.882Z,18.90
2022-09-06T16:56:45.802Z,18.70
2022-09-06T16:59:15.241Z,18.50
2022-09-06T17:01:43.688Z,18.30
2022-09-06T17:04:12.743Z,18.10
2022-09-06T17:06:44.724Z,18.00
2022-09-06T17:09:14.430Z,17.80
2022-09-06T17:11:41.897Z,17.50
2022-09-06T17:14:09.116Z,17.40
2022-09-06T17:16:55.070Z,17.20
2022-09-06T17:19:22.536Z,17.00
2022-09-06T17:21:50.778Z,16.80
2022-09-06T17:24:18.014Z,16.70
2022-09-06T17:26:45.299Z,16.60
2022-09-06T17:29:13.026Z,16.40
2022-09-06T17:31:40.490Z,16.20
2022-09-06T17:34:07.835Z,16.10
2022-09-06T17:36:36.513Z,16.00
2022-09-06T17:39:05.310Z,15.80
2022-09-06T17:41:40.851Z,15.70
2022-09-06T17:44:14.313Z,15.60
2022-09-06T17:46:56.949Z,15.50
2022-09-06T17:49:32.876Z,15.40
2022-09-06T17:52:00.152Z,15.20
2022-09-06T17:54:28.323Z,15.10
2022-09-06T17:56:55.755Z,15.00
2022-09-06T17:59:23.054Z,14.90
2022-09-06T18:01:50.323Z,14.80
2022-09-06T18:04:18.197Z,14.70
2022-09-06T18:06:46.867Z,14.70
2022-09-06T18:09:16.898Z,14.70
2022-09-06T18:11:46.841Z,14.60
2022-09-06T18:14:20.852Z,14.50
2022-09-06T18:16:50.899Z,14.40
2022-09-06T18:19:18.985Z,14.30
2022-09-06T18:21:46.822Z,14.20
2022-09-06T18:24:15.444Z,14.20
2022-09-06T18:26:43.585Z,14.10
2022-09-06T18:29:16.666Z,14.00
2022-09-06T18:31:44.540Z,14.00
2022-09-06T18:34:12.713Z,13.90
2022-09-06T18:36:40.292Z,13.80
2022-09-06T18:39:08.137Z,13.70
2022-09-06T18:41:54.259Z,13.70
2022-09-06T18:44:22.439Z,13.60
2022-09-06T18:46:50.025Z,13.50
2022-09-06T18:49:17.705Z,13.40
2022-09-06T18:51:45.704Z,13.30
2022-09-06T18:54:13.635Z,13.30
2022-09-06T18:56:41.535Z,13.20
2022-09-06T18:59:10.878Z,13.10
2022-09-06T19:01:39.155Z,13.10
2022-09-06T19:04:07.638Z,13.00
2022-09-06T19:06:36.367Z,12.90
2022-09-06T19:09:07.228Z,12.90
2022-09-06T19:11:35.047Z,12.80
2022-09-06T19:14:09.784Z,12.80
2022-09-06T19:16:37.465Z,12.70
2022-09-06T19:19:08.024Z,12.60
2022-09-06T19:21:40.988Z,12.60
2022-09-06T19:24:11.638Z,12.50
2022-09-06T19:26:41.787Z,12.40
2022-09-06T19:29:14.094Z,12.40
2022-09-06T19:31:42.363Z,12.40
2022-09-06T19:34:10.311Z,12.40
2022-09-06T19:36:37.970Z,12.30
2022-09-06T19:39:07.926Z,12.30
2022-09-06T19:41:41.840Z,12.20
2022-09-06T19:44:12.566Z,12.20
2022-09-06T19:46:44.914Z,12.10
2022-09-06T19:49:17.874Z,12.10
2022-09-06T19:51:46.787Z,12.10
2022-09-06T19:54:15.484Z,12.00
2022-09-06T19:56:44.489Z,12.00
2022-09-06T19:59:13.020Z,12.00
2022-09-06T20:01:42.265Z,11.90
2022-09-06T20:04:11.113Z,11.80
2022-09-06T20:06:39.314Z,11.70
2022-09-06T20:09:09.461Z,11.70
2022-09-06T20:11:38.545Z,11.70
2022-09-06T20:14:06.189Z,11.60
2022-09-06T20:16:38.090Z,11.50
2022-09-06T20:19:08.211Z,11.50
2022-09-06T20:21:35.595Z,11.40
2022-09-06T20:24:03.167Z,11.40
2022-09-06T20:26:30.612Z,11.40
2022-09-06T20:29:00.190Z,11.30
2022-09-06T20:31:29.419Z,11.20
2022-09-06T20:33:59.216Z,11.20
2022-09-06T20:36:27.139Z,11.10
2022-09-06T20:38:54.499Z,11.00
2022-09-06T20:41:23.960Z,11.00
2022-09-06T20:43:56.633Z,10.90
2022-09-06T20:46:26.644Z,10.90
2022-09-06T20:48:57.470Z,10.80
2022-09-06T20:51:25.635Z,10.80
2022-09-06T20:53:58.061Z,10.80
2022-09-06T20:56:28.145Z,10.70
2022-09-06T20:59:00.938Z,10.70
2022-09-06T21:01:34.804Z,10.60
2022-09-06T21:04:05.437Z,10.50
2022-09-06T21:06:35.737Z,10.50
2022-09-06T21:09:05.264Z,10.50
2022-09-06T21:11:33.275Z,10.40
2022-09-06T21:14:01.096Z,10.40
2022-09-06T21:16:29.390Z,10.40
2022-09-06T21:19:01.422Z,10.30
2022-09-06T21:21:30.538Z,10.20
2022-09-06T21:23:57.970Z,10.20
2022-09-06T21:26:25.222Z,10.20
2022-09-06T21:28:53.473Z,10.10
2022-09-06T21:31:23.603Z,10.00
2022-09-06T21:33:53.207Z,10.00
2022-09-06T21:36:23.157Z,10.00
2022-09-06T21:38:53.865Z,9.90
2022-09-06T21:41:22.512Z,9.90
2022-09-06T21:44:00.765Z,9.80
2022-09-06T21:46:34.103Z,9.80
2022-09-06T21:49:04.461Z,9.70
2022-09-06T21:51:32.776Z,9.70
2022-09-06T21:54:03.570Z,9.70
2022-09-06T21:56:32.398Z,9.60
2022-09-06T21:59:00.251Z,9.60
2022-09-06T22:01:31.714Z,9.50
2022-09-06T22:04:00.220Z,9.50
2022-09-06T22:06:29.950Z,9.40
2022-09-06T22:09:02.834Z,9.40
2022-09-06T22:11:32.731Z,9.40
2022-09-06T22:14:02.643Z,9.30
2022-09-06T22:16:32.582Z,9.30
2022-09-06T22:19:00.204Z,9.20
2022-09-06T22:21:27.582Z,9.20
2022-09-06T22:23:57.452Z,9.10
2022-09-06T22:26:27.318Z,9.10
2022-09-06T22:28:58.248Z,9.10
2022-09-06T22:31:27.096Z,9.00
2022-09-06T22:33:55.547Z,9.00
2022-09-06T22:36:24.006Z,9.00
2022-09-06T22:38:56.393Z,9.00
2022-09-06T22:41:27.966Z,8.90
2022-09-06T22:43:56.551Z,8.90
2022-09-06T22:46:23.883Z,8.90
2022-09-06T22:48:51.300Z,8.80
2022-09-06T22:51:18.844Z,8.80
2022-09-06T22:53:46.027Z,8.70
2022-09-06T22:56:13.351Z,8.70
2022-09-06T22:58:41.058Z,8.70
2022-09-06T23:01:10.859Z,8.60
2022-09-06T23:03:39.071Z,8.60
2022-09-06T23:06:06.765Z,8.60
2022-09-06T23:08:36.701Z,8.50
2022-09-06T23:11:10.242Z,8.50
2022-09-06T23:13:37.868Z,8.40
2022-09-06T23:16:07.484Z,8.40
2022-09-06T23:18:35.211Z,8.40
2022-09-06T23:21:11.301Z,8.30
2022-09-06T23:23:39.619Z,8.30
2022-09-06T23:26:09.955Z,8.20
2022-09-06T23:28:37.370Z,8.20
2022-09-06T23:31:07.383Z,8.10
2022-09-06T23:33:38.855Z,8.10
2022-09-06T23:36:08.091Z,8.00
2022-09-06T23:38:37.701Z,8.00
2022-09-06T23:41:06.391Z,8.00
2022-09-06T23:43:33.651Z,7.90
2022-09-06T23:46:01.169Z,7.90
2022-09-06T23:48:28.971Z,7.80
2022-09-06T23:50:56.251Z,7.80
2022-09-06T23:53:23.969Z,7.80
2022-09-06T23:55:51.234Z,7.70
2022-09-06T23:58:18.424Z,7.70
